sensor_id;sensor_type;location;lat;lon;timestamp;pressure;altitude;pressure_sealevel;temperature;humidity
69402;BME280;56589;51.992;5.924;2023-07-24T00:01:37;99943.38;;;18.41;80.07
69402;BME280;56589;51.992;5.924;2023-07-24T00:04:04;99934.72;;;18.39;80.30
69402;BME280;56589;51.992;5.924;2023-07-24T00:06:29;99933.91;;;18.38;80.09
69402;BME280;56589;51.992;5.924;2023-07-24T00:08:55;99935.91;;;18.36;80.10
69402;BME280;56589;51.992;5.924;2023-07-24T00:11:21;99934.25;;;18.35;79.61
69402;BME280;56589;51.992;5.924;2023-07-24T00:13:47;99934.44;;;18.33;80.07
69402;BME280;56589;51.992;5.924;2023-07-24T00:16:16;99930.91;;;18.33;79.87
69402;BME280;56589;51.992;5.924;2023-07-24T00:18:41;99939.56;;;18.35;79.87
69402;BME280;56589;51.992;5.924;2023-07-24T00:21:07;99933.44;;;18.35;79.81
69402;BME280;56589;51.992;5.924;2023-07-24T00:23:33;99925.59;;;18.33;80.07
69402;BME280;56589;51.992;5.924;2023-07-24T00:25:59;99927.44;;;18.32;79.83
69402;BME280;56589;51.992;5.924;2023-07-24T00:28:25;99918.00;;;18.30;80.29
69402;BME280;56589;51.992;5.924;2023-07-24T00:30:51;99917.81;;;18.31;80.08
69402;BME280;56589;51.992;5.924;2023-07-24T00:33:19;99920.81;;;18.28;80.06
69402;BME280;56589;51.992;5.924;2023-07-24T00:35:46;99918.16;;;18.28;80.28
69402;BME280;56589;51.992;5.924;2023-07-24T00:38:12;99915.50;;;18.28;79.96
69402;BME280;56589;51.992;5.924;2023-07-24T00:40:38;99905.03;;;18.27;80.06
69402;BME280;56589;51.992;5.924;2023-07-24T00:43:04;99902.38;;;18.27;79.89
69402;BME280;56589;51.992;5.924;2023-07-24T00:45:30;99905.03;;;18.27;80.30
69402;BME280;56589;51.992;5.924;2023-07-24T00:47:56;99893.75;;;18.25;79.76
69402;BME280;56589;51.992;5.924;2023-07-24T00:50:27;99892.28;;;18.22;79.74
69402;BME280;56589;51.992;5.924;2023-07-24T00:52:54;99880.97;;;18.20;79.69
69402;BME280;56589;51.992;5.924;2023-07-24T00:55:21;99885.81;;;18.17;79.86
69402;BME280;56589;51.992;5.924;2023-07-24T00:57:47;99882.63;;;18.13;79.70
69402;BME280;56589;51.992;5.924;2023-07-24T01:00:14;99874.03;;;18.11;80.25
69402;BME280;56589;51.992;5.924;2023-07-24T01:02:40;99873.19;;;18.11;80.24
69402;BME280;56589;51.992;5.924;2023-07-24T01:05:08;99863.56;;;18.10;80.38
69402;BME280;56589;51.992;5.924;2023-07-24T01:07:40;99871.53;;;18.10;80.09
69402;BME280;56589;51.992;5.924;2023-07-24T01:10:07;99855.59;;;18.10;80.07
69402;BME280;56589;51.992;5.924;2023-07-24T01:12:39;99862.06;;;18.07;80.65
69402;BME280;56589;51.992;5.924;2023-07-24T01:15:14;99856.56;;;18.09;80.66
69402;BME280;56589;51.992;5.924;2023-07-24T01:17:48;99868.88;;;18.10;80.47
69402;BME280;56589;51.992;5.924;2023-07-24T01:20:22;99861.75;;;18.10;80.59
69402;BME280;56589;51.992;5.924;2023-07-24T01:23:23;99852.94;;;18.10;80.80
69402;BME280;56589;51.992;5.924;2023-07-24T01:26:06;99862.88;;;18.08;80.79
69402;BME280;56589;51.992;5.924;2023-07-24T01:28:33;99858.41;;;18.08;80.66
69402;BME280;56589;51.992;5.924;2023-07-24T01:30:59;99863.56;;;18.10;81.02
69402;BME280;56589;51.992;5.924;2023-07-24T01:33:25;99854.78;;;18.09;81.10
69402;BME280;56589;51.992;5.924;2023-07-24T01:35:54;99843.16;;;18.10;80.77
69402;BME280;56589;51.992;5.924;2023-07-24T01:38:24;99835.19;;;18.10;81.08
69402;BME280;56589;51.992;5.924;2023-07-24T01:40:52;99839.81;;;18.08;80.90
69402;BME280;56589;51.992;5.924;2023-07-24T01:43:22;99846.13;;;18.07;81.15
69402;BME280;56589;51.992;5.924;2023-07-24T01:45:49;99841.81;;;18.06;81.11
69402;BME280;56589;51.992;5.924;2023-07-24T01:48:15;99832.19;;;18.05;80.93
69402;BME280;56589;51.992;5.924;2023-07-24T01:50:41;99824.56;;;18.02;81.28
69402;BME280;56589;51.992;5.924;2023-07-24T01:53:07;99826.56;;;18.00;81.03
69402;BME280;56589;51.992;5.924;2023-07-24T01:55:33;99826.38;;;18.01;80.87
69402;BME280;56589;51.992;5.924;2023-07-24T01:57:59;99829.03;;;18.01;81.04
69402;BME280;56589;51.992;5.924;2023-07-24T02:00:27;99819.09;;;18.03;81.11
69402;BME280;56589;51.992;5.924;2023-07-24T02:02:53;99818.91;;;18.05;81.53
69402;BME280;56589;51.992;5.924;2023-07-24T02:05:19;99817.09;;;18.05;81.13
69402;BME280;56589;51.992;5.924;2023-07-24T02:07:45;99816.25;;;18.05;81.54
69402;BME280;56589;51.992;5.924;2023-07-24T02:10:11;99802.97;;;18.05;81.51
69402;BME280;56589;51.992;5.924;2023-07-24T02:12:38;99806.63;;;18.04;81.37
69402;BME280;56589;51.992;5.924;2023-07-24T02:15:06;99811.25;;;18.02;81.48
69402;BME280;56589;51.992;5.924;2023-07-24T02:17:35;99810.78;;;17.98;81.15
69402;BME280;56589;51.992;5.924;2023-07-24T02:20:01;99812.78;;;17.96;81.62
69402;BME280;56589;51.992;5.924;2023-07-24T02:22:27;99809.97;;;17.98;81.74
69402;BME280;56589;51.992;5.924;2023-07-24T02:24:53;99809.78;;;17.99;81.62
69402;BME280;56589;51.992;5.924;2023-07-24T02:27:25;99806.97;;;18.01;81.72
69402;BME280;56589;51.992;5.924;2023-07-24T02:29:52;99802.47;;;18.01;81.28
69402;BME280;56589;51.992;5.924;2023-07-24T02:32:18;99787.22;;;18.03;81.26
69402;BME280;56589;51.992;5.924;2023-07-24T02:34:46;99788.69;;;18.06;81.23
69402;BME280;56589;51.992;5.924;2023-07-24T02:37:12;99794.50;;;18.10;81.58
69402;BME280;56589;51.992;5.924;2023-07-24T02:39:38;99785.72;;;18.09;81.25
69402;BME280;56589;51.992;5.924;2023-07-24T02:42:04;99784.84;;;18.09;81.58
69402;BME280;56589;51.992;5.924;2023-07-24T02:44:30;99791.84;;;18.10;81.38
69402;BME280;56589;51.992;5.924;2023-07-24T02:46:59;99791.03;;;18.09;81.51
69402;BME280;56589;51.992;5.924;2023-07-24T02:49:25;99787.50;;;18.09;81.42
69402;BME280;56589;51.992;5.924;2023-07-24T02:51:53;99780.38;;;18.09;81.42
69402;BME280;56589;51.992;5.924;2023-07-24T02:54:19;99777.06;;;18.07;81.92
69402;BME280;56589;51.992;5.924;2023-07-24T02:56:45;99793.00;;;18.07;81.97
69402;BME280;56589;51.992;5.924;2023-07-24T02:59:11;99780.72;;;18.06;82.15
69402;BME280;56589;51.992;5.924;2023-07-24T03:01:37;99785.03;;;18.07;82.13
69402;BME280;56589;51.992;5.924;2023-07-24T03:04:03;99787.69;;;18.07;82.16
69402;BME280;56589;51.992;5.924;2023-07-24T03:06:29;99786.84;;;18.06;81.69
69402;BME280;56589;51.992;5.924;2023-07-24T03:08:58;99778.06;;;18.06;82.27
69402;BME280;56589;51.992;5.924;2023-07-24T03:11:24;99777.56;;;18.02;82.17
69402;BME280;56589;51.992;5.924;2023-07-24T03:13:49;99777.75;;;18.01;82.09
69402;BME280;56589;51.992;5.924;2023-07-24T03:16:15;99765.28;;;18.01;82.24
69402;BME280;56589;51.992;5.924;2023-07-24T03:18:41;99761.81;;;18.01;82.47
69402;BME280;56589;51.992;5.924;2023-07-24T03:21:07;99758.31;;;18.00;82.19
69402;BME280;56589;51.992;5.924;2023-07-24T03:23:34;99755.84;;;17.99;82.39
69402;BME280;56589;51.992;5.924;2023-07-24T03:26:02;99743.56;;;17.98;82.45
69402;BME280;56589;51.992;5.924;2023-07-24T03:28:28;99742.88;;;17.96;82.57
69402;BME280;56589;51.992;5.924;2023-07-24T03:30:54;99744.91;;;17.94;82.30
69402;BME280;56589;51.992;5.924;2023-07-24T03:33:20;99752.03;;;17.93;82.80
69402;BME280;56589;51.992;5.924;2023-07-24T03:35:46;99763.66;;;17.92;82.87
69402;BME280;56589;51.992;5.924;2023-07-24T03:38:12;99770.81;;;17.92;82.75
69402;BME280;56589;51.992;5.924;2023-07-24T03:40:40;99757.69;;;17.90;82.64
69402;BME280;56589;51.992;5.924;2023-07-24T03:43:08;99743.75;;;17.88;82.98
69402;BME280;56589;51.992;5.924;2023-07-24T03:45:34;99747.75;;;17.84;82.75
69402;BME280;56589;51.992;5.924;2023-07-24T03:48:00;99741.78;;;17.82;83.02
69402;BME280;56589;51.992;5.924;2023-07-24T03:50:29;99724.38;;;17.79;82.88
69402;BME280;56589;51.992;5.924;2023-07-24T03:52:55;99729.00;;;17.77;83.34
69402;BME280;56589;51.992;5.924;2023-07-24T03:55:21;99731.03;;;17.75;83.39
69402;BME280;56589;51.992;5.924;2023-07-24T03:57:47;99734.84;;;17.73;83.22
69402;BME280;56589;51.992;5.924;2023-07-24T04:00:16;99730.03;;;17.68;83.39
69402;BME280;56589;51.992;5.924;2023-07-24T04:02:42;99733.81;;;17.66;83.35
69402;BME280;56589;51.992;5.924;2023-07-24T04:05:08;99740.31;;;17.63;82.96
69402;BME280;56589;51.992;5.924;2023-07-24T04:07:34;99742.31;;;17.61;83.36
69402;BME280;56589;51.992;5.924;2023-07-24T04:10:00;99736.50;;;17.58;83.42
69402;BME280;56589;51.992;5.924;2023-07-24T04:12:26;99734.19;;;17.55;83.30
69402;BME280;56589;51.992;5.924;2023-07-24T04:14:52;99739.66;;;17.53;83.60
69402;BME280;56589;51.992;5.924;2023-07-24T04:17:20;99739.00;;;17.51;83.80
69402;BME280;56589;51.992;5.924;2023-07-24T04:19:47;99737.34;;;17.50;83.49
69402;BME280;56589;51.992;5.924;2023-07-24T04:22:12;99739.34;;;17.48;83.90
69402;BME280;56589;51.992;5.924;2023-07-24T04:24:38;99740.31;;;17.47;83.77
69402;BME280;56589;51.992;5.924;2023-07-24T04:27:04;99741.34;;;17.46;84.01
69402;BME280;56589;51.992;5.924;2023-07-24T04:29:30;99738.84;;;17.44;83.95
69402;BME280;56589;51.992;5.924;2023-07-24T04:31:56;99739.03;;;17.43;84.01
69402;BME280;56589;51.992;5.924;2023-07-24T04:34:25;99730.38;;;17.41;83.83
69402;BME280;56589;51.992;5.924;2023-07-24T04:36:51;99727.91;;;17.39;83.66
69402;BME280;56589;51.992;5.924;2023-07-24T04:39:17;99728.09;;;17.38;83.89
69402;BME280;56589;51.992;5.924;2023-07-24T04:41:43;99724.44;;;17.39;84.01
69402;BME280;56589;51.992;5.924;2023-07-24T04:44:08;99727.91;;;17.39;83.94
69402;BME280;56589;51.992;5.924;2023-07-24T04:46:34;99738.34;;;17.41;83.98
69402;BME280;56589;51.992;5.924;2023-07-24T04:49:00;99746.31;;;17.41;83.82
69402;BME280;56589;51.992;5.924;2023-07-24T04:51:29;99740.84;;;17.42;84.11
69402;BME280;56589;51.992;5.924;2023-07-24T04:53:54;99738.34;;;17.41;83.76
69402;BME280;56589;51.992;5.924;2023-07-24T04:56:20;99745.34;;;17.42;83.85
69402;BME280;56589;51.992;5.924;2023-07-24T04:58:46;99742.50;;;17.43;84.20
69402;BME280;56589;51.992;5.924;2023-07-24T05:01:12;99746.00;;;17.44;83.65
69402;BME280;56589;51.992;5.924;2023-07-24T05:03:38;99744.47;;;17.41;83.94
69402;BME280;56589;51.992;5.924;2023-07-24T05:06:04;99738.34;;;17.41;84.24
69402;BME280;56589;51.992;5.924;2023-07-24T05:08:32;99736.03;;;17.38;83.64
69402;BME280;56589;51.992;5.924;2023-07-24T05:10:59;99749.31;;;17.38;83.78
69402;BME280;56589;51.992;5.924;2023-07-24T05:13:25;99746.84;;;17.36;83.84
69402;BME280;56589;51.992;5.924;2023-07-24T05:15:51;99754.63;;;17.38;84.26
69402;BME280;56589;51.992;5.924;2023-07-24T05:18:19;99747.66;;;17.37;84.00
69402;BME280;56589;51.992;5.924;2023-07-24T05:20:45;99757.28;;;17.38;83.94
69402;BME280;56589;51.992;5.924;2023-07-24T05:23:12;99747.47;;;17.38;84.26
69402;BME280;56589;51.992;5.924;2023-07-24T05:25:41;99750.97;;;17.39;84.02
69402;BME280;56589;51.992;5.924;2023-07-24T05:28:07;99748.13;;;17.40;83.79
69402;BME280;56589;51.992;5.924;2023-07-24T05:30:33;99760.56;;;17.40;83.80
69402;BME280;56589;51.992;5.924;2023-07-24T05:32:59;99763.22;;;17.40;84.22
69402;BME280;56589;51.992;5.924;2023-07-24T05:35:25;99764.22;;;17.39;83.92
69402;BME280;56589;51.992;5.924;2023-07-24T05:37:51;99759.94;;;17.38;83.97
69402;BME280;56589;51.992;5.924;2023-07-24T05:40:17;99765.72;;;17.41;84.03
69402;BME280;56589;51.992;5.924;2023-07-24T05:42:45;99758.44;;;17.43;83.94
69402;BME280;56589;51.992;5.924;2023-07-24T05:45:11;99753.94;;;17.44;84.27
69402;BME280;56589;51.992;5.924;2023-07-24T05:47:37;99759.91;;;17.46;84.48
69402;BME280;56589;51.992;5.924;2023-07-24T05:50:04;99766.72;;;17.48;84.06
69402;BME280;56589;51.992;5.924;2023-07-24T05:52:31;99770.53;;;17.54;83.88
69402;BME280;56589;51.992;5.924;2023-07-24T05:54:56;99765.69;;;17.58;84.07
69402;BME280;56589;51.992;5.924;2023-07-24T05:57:22;99767.22;;;17.60;83.84
69402;BME280;56589;51.992;5.924;2023-07-24T05:59:51;99767.22;;;17.60;84.04
69402;BME280;56589;51.992;5.924;2023-07-24T06:02:17;99774.00;;;17.63;83.79
69402;BME280;56589;51.992;5.924;2023-07-24T06:04:43;99778.47;;;17.62;83.63
69402;BME280;56589;51.992;5.924;2023-07-24T06:07:09;99774.63;;;17.65;83.42
69402;BME280;56589;51.992;5.924;2023-07-24T06:09:35;99782.31;;;17.68;83.65
69402;BME280;56589;51.992;5.924;2023-07-24T06:12:00;99777.84;;;17.68;83.28
69402;BME280;56589;51.992;5.924;2023-07-24T06:14:26;99777.00;;;17.68;83.58
69402;BME280;56589;51.992;5.924;2023-07-24T06:16:55;99777.66;;;17.70;83.22
69402;BME280;56589;51.992;5.924;2023-07-24T06:19:21;99777.47;;;17.71;83.13
69402;BME280;56589;51.992;5.924;2023-07-24T06:21:47;99775.50;;;17.73;82.86
69402;BME280;56589;51.992;5.924;2023-07-24T06:24:13;99778.16;;;17.73;82.78
69402;BME280;56589;51.992;5.924;2023-07-24T06:26:38;99773.50;;;17.75;83.04
69402;BME280;56589;51.992;5.924;2023-07-24T06:29:05;99781.28;;;17.77;82.74
69402;BME280;56589;51.992;5.924;2023-07-24T06:31:31;99780.47;;;17.76;83.01
69402;BME280;56589;51.992;5.924;2023-07-24T06:33:59;99777.13;;;17.83;83.06
69402;BME280;56589;51.992;5.924;2023-07-24T06:36:25;99761.19;;;17.91;83.00
69402;BME280;56589;51.992;5.924;2023-07-24T06:38:51;99762.13;;;18.06;83.04
69402;BME280;56589;51.992;5.924;2023-07-24T06:41:17;99774.16;;;18.25;83.53
69402;BME280;56589;51.992;5.924;2023-07-24T06:43:43;99778.22;;;18.52;83.05
69402;BME280;56589;51.992;5.924;2023-07-24T06:46:09;99788.25;;;18.73;82.31
69402;BME280;56589;51.992;5.924;2023-07-24T06:48:34;99780.44;;;18.94;82.35
69402;BME280;56589;51.992;5.924;2023-07-24T06:51:03;99785.03;;;19.08;81.07
69402;BME280;56589;51.992;5.924;2023-07-24T06:53:29;99786.88;;;19.08;80.36
69402;BME280;56589;51.992;5.924;2023-07-24T06:55:55;99788.41;;;19.02;79.63
69402;BME280;56589;51.992;5.924;2023-07-24T06:58:21;99794.94;;;18.92;79.42
69402;BME280;56589;51.992;5.924;2023-07-24T07:00:47;99793.06;;;18.77;79.03
69402;BME280;56589;51.992;5.924;2023-07-24T07:03:12;99793.06;;;18.69;79.73
69402;BME280;56589;51.992;5.924;2023-07-24T07:05:38;99793.44;;;18.66;80.10
69402;BME280;56589;51.992;5.924;2023-07-24T07:08:07;99798.28;;;18.63;79.79
69402;BME280;56589;51.992;5.924;2023-07-24T07:10:33;99789.97;;;18.66;80.15
69402;BME280;56589;51.992;5.924;2023-07-24T07:12:59;99798.13;;;18.87;81.20
69402;BME280;56589;51.992;5.924;2023-07-24T07:15:25;99801.53;;;19.27;80.91
69402;BME280;56589;51.992;5.924;2023-07-24T07:17:51;99793.91;;;19.61;79.58
69402;BME280;56589;51.992;5.924;2023-07-24T07:20:17;99803.06;;;19.97;78.79
69402;BME280;56589;51.992;5.924;2023-07-24T07:22:43;99796.81;;;20.19;78.08
69402;BME280;56589;51.992;5.924;2023-07-24T07:25:11;99799.03;;;20.30;76.79
69402;BME280;56589;51.992;5.924;2023-07-24T07:27:37;99800.69;;;20.31;76.77
69402;BME280;56589;51.992;5.924;2023-07-24T07:30:04;99793.88;;;20.43;76.81
69402;BME280;56589;51.992;5.924;2023-07-24T07:32:30;99805.75;;;20.77;76.32
69402;BME280;56589;51.992;5.924;2023-07-24T07:34:56;99799.44;;;21.21;75.62
69402;BME280;56589;51.992;5.924;2023-07-24T07:37:22;99793.06;;;21.43;73.90
69402;BME280;56589;51.992;5.924;2023-07-24T07:39:48;99794.25;;;21.62;73.23
69402;BME280;56589;51.992;5.924;2023-07-24T07:42:16;99789.44;;;21.79;72.84
69402;BME280;56589;51.992;5.924;2023-07-24T07:44:42;99780.84;;;21.84;71.84
69402;BME280;56589;51.992;5.924;2023-07-24T07:47:08;99783.97;;;21.87;71.16
69402;BME280;56589;51.992;5.924;2023-07-24T07:49:34;99786.00;;;21.85;70.59
69402;BME280;56589;51.992;5.924;2023-07-24T07:52:00;99789.97;;;21.68;70.47
69402;BME280;56589;51.992;5.924;2023-07-24T07:54:25;99783.31;;;21.57;69.96
69402;BME280;56589;51.992;5.924;2023-07-24T07:56:51;99783.06;;;21.52;69.48
69402;BME280;56589;51.992;5.924;2023-07-24T07:59:20;99785.94;;;21.50;70.54
69402;BME280;56589;51.992;5.924;2023-07-24T08:01:46;99779.03;;;21.63;70.35
69402;BME280;56589;51.992;5.924;2023-07-24T08:04:11;99778.75;;;21.79;69.64
69402;BME280;56589;51.992;5.924;2023-07-24T08:06:37;99788.16;;;21.75;68.61
69402;BME280;56589;51.992;5.924;2023-07-24T08:09:03;99788.59;;;21.50;68.12
69402;BME280;56589;51.992;5.924;2023-07-24T08:11:29;99783.81;;;21.18;69.08
69402;BME280;56589;51.992;5.924;2023-07-24T08:13:55;99783.28;;;20.86;69.56
69402;BME280;56589;51.992;5.924;2023-07-24T08:16:23;99785.41;;;20.55;69.76
69402;BME280;56589;51.992;5.924;2023-07-24T08:18:50;99787.06;;;20.26;70.38
69402;BME280;56589;51.992;5.924;2023-07-24T08:21:16;99787.97;;;20.04;71.09
69402;BME280;56589;51.992;5.924;2023-07-24T08:23:42;99782.22;;;20.00;72.41
69402;BME280;56589;51.992;5.924;2023-07-24T08:26:07;99784.03;;;20.14;73.72
69402;BME280;56589;51.992;5.924;2023-07-24T08:28:34;99776.66;;;20.46;74.29
69402;BME280;56589;51.992;5.924;2023-07-24T08:31:00;99781.94;;;20.76;73.20
69402;BME280;56589;51.992;5.924;2023-07-24T08:33:29;99779.91;;;20.99;72.89
69402;BME280;56589;51.992;5.924;2023-07-24T08:36:02;99787.56;;;21.23;73.11
69402;BME280;56589;51.992;5.924;2023-07-24T08:38:29;99787.06;;;21.63;73.42
69402;BME280;56589;51.992;5.924;2023-07-24T08:41:03;99792.88;;;22.01;72.02
69402;BME280;56589;51.992;5.924;2023-07-24T08:43:31;99790.09;;;22.16;70.85
69402;BME280;56589;51.992;5.924;2023-07-24T08:45:58;99787.66;;;22.21;70.00
69402;BME280;56589;51.992;5.924;2023-07-24T08:48:30;99788.66;;;22.20;69.44
69402;BME280;56589;51.992;5.924;2023-07-24T08:50:59;99781.06;;;22.17;68.20
69402;BME280;56589;51.992;5.924;2023-07-24T08:53:25;99779.06;;;22.32;69.34
69402;BME280;56589;51.992;5.924;2023-07-24T08:55:54;99780.91;;;22.79;67.66
69402;BME280;56589;51.992;5.924;2023-07-24T08:58:21;99776.03;;;23.16;66.53
69402;BME280;56589;51.992;5.924;2023-07-24T09:00:47;99763.66;;;23.55;65.81
69402;BME280;56589;51.992;5.924;2023-07-24T09:03:13;99777.63;;;23.97;64.74
69402;BME280;56589;51.992;5.924;2023-07-24T09:05:42;99768.28;;;24.26;62.71
69402;BME280;56589;51.992;5.924;2023-07-24T09:08:08;99773.06;;;24.24;61.45
69402;BME280;56589;51.992;5.924;2023-07-24T09:10:33;99770.59;;;24.02;61.08
69402;BME280;56589;51.992;5.924;2023-07-24T09:13:00;99770.06;;;23.74;60.45
69402;BME280;56589;51.992;5.924;2023-07-24T09:15:25;99763.50;;;23.43;60.96
69402;BME280;56589;51.992;5.924;2023-07-24T09:17:53;99757.88;;;23.18;60.98
69402;BME280;56589;51.992;5.924;2023-07-24T09:20:19;99759.94;;;23.23;62.31
69402;BME280;56589;51.992;5.924;2023-07-24T09:22:53;99749.47;;;23.48;62.26
69402;BME280;56589;51.992;5.924;2023-07-24T09:25:29;99759.69;;;23.90;61.04
69402;BME280;56589;51.992;5.924;2023-07-24T09:27:55;99751.38;;;24.25;60.84
69402;BME280;56589;51.992;5.924;2023-07-24T09:30:22;99752.47;;;24.56;59.63
69402;BME280;56589;51.992;5.924;2023-07-24T09:32:52;99748.19;;;24.86;58.22
69402;BME280;56589;51.992;5.924;2023-07-24T09:35:19;99731.22;;;25.17;57.77
69402;BME280;56589;51.992;5.924;2023-07-24T09:37:46;99730.00;;;25.63;56.86
69402;BME280;56589;51.992;5.924;2023-07-24T09:40:15;99733.47;;;25.89;54.50
69402;BME280;56589;51.992;5.924;2023-07-24T09:42:41;99729.03;;;25.76;54.57
69402;BME280;56589;51.992;5.924;2023-07-24T09:45:08;99726.13;;;25.59;54.33
69402;BME280;56589;51.992;5.924;2023-07-24T09:47:35;99721.03;;;25.69;55.08
69402;BME280;56589;51.992;5.924;2023-07-24T09:50:03;99721.03;;;25.88;53.16
69402;BME280;56589;51.992;5.924;2023-07-24T09:52:30;99722.63;;;25.59;52.19
69402;BME280;56589;51.992;5.924;2023-07-24T09:55:01;99717.28;;;25.02;52.86
69402;BME280;56589;51.992;5.924;2023-07-24T09:57:36;99730.41;;;24.47;53.31
69402;BME280;56589;51.992;5.924;2023-07-24T10:00:04;99730.59;;;24.07;53.74
69402;BME280;56589;51.992;5.924;2023-07-24T10:02:31;99721.19;;;23.72;54.61
69402;BME280;56589;51.992;5.924;2023-07-24T10:04:58;99715.44;;;23.48;55.21
69402;BME280;56589;51.992;5.924;2023-07-24T10:07:26;99719.19;;;23.34;55.00
69402;BME280;56589;51.992;5.924;2023-07-24T10:09:53;99712.16;;;23.26;55.51
69402;BME280;56589;51.992;5.924;2023-07-24T10:12:20;99721.41;;;23.24;55.76
69402;BME280;56589;51.992;5.924;2023-07-24T10:14:50;99718.34;;;23.13;56.01
69402;BME280;56589;51.992;5.924;2023-07-24T10:17:33;99703.94;;;22.88;55.69
69402;BME280;56589;51.992;5.924;2023-07-24T10:20:03;99708.13;;;22.43;56.77
69402;BME280;56589;51.992;5.924;2023-07-24T10:22:29;99693.81;;;22.09;57.98
69402;BME280;56589;51.992;5.924;2023-07-24T10:24:55;99686.97;;;21.93;58.90
69402;BME280;56589;51.992;5.924;2023-07-24T10:27:23;99685.94;;;21.94;59.53
69402;BME280;56589;51.992;5.924;2023-07-24T10:30:00;99686.41;;;22.04;59.49
69402;BME280;56589;51.992;5.924;2023-07-24T10:32:27;99677.16;;;22.14;59.05
69402;BME280;56589;51.992;5.924;2023-07-24T10:34:59;99670.59;;;22.16;58.78
69402;BME280;56589;51.992;5.924;2023-07-24T10:37:33;99683.78;;;22.18;58.13
69402;BME280;56589;51.992;5.924;2023-07-24T10:39:59;99690.97;;;22.17;58.63
69402;BME280;56589;51.992;5.924;2023-07-24T10:42:25;99682.34;;;22.22;58.36
69402;BME280;56589;51.992;5.924;2023-07-24T10:45:04;99691.59;;;22.26;58.76
69402;BME280;56589;51.992;5.924;2023-07-24T10:47:32;99689.97;;;22.25;58.63
69402;BME280;56589;51.992;5.924;2023-07-24T10:49:58;99695.94;;;22.27;58.76
69402;BME280;56589;51.992;5.924;2023-07-24T10:52:27;99683.56;;;22.26;58.72
69402;BME280;56589;51.992;5.924;2023-07-24T10:54:53;99701.91;;;22.22;59.01
69402;BME280;56589;51.992;5.924;2023-07-24T10:57:25;99702.50;;;22.18;58.97
69402;BME280;56589;51.992;5.924;2023-07-24T10:59:51;99709.44;;;22.12;58.80
69402;BME280;56589;51.992;5.924;2023-07-24T11:02:19;99708.22;;;22.08;59.09
69402;BME280;56589;51.992;5.924;2023-07-24T11:04:46;99709.84;;;22.02;58.94
69402;BME280;56589;51.992;5.924;2023-07-24T11:07:12;99721.50;;;21.95;59.53
69402;BME280;56589;51.992;5.924;2023-07-24T11:09:39;99720.44;;;21.89;59.49
69402;BME280;56589;51.992;5.924;2023-07-24T11:12:13;99730.69;;;21.86;59.14
69402;BME280;56589;51.992;5.924;2023-07-24T11:14:50;99732.31;;;21.80;59.13
69402;BME280;56589;51.992;5.924;2023-07-24T11:17:19;99744.00;;;21.79;59.98
69402;BME280;56589;51.992;5.924;2023-07-24T11:19:45;99747.38;;;21.88;59.84
69402;BME280;56589;51.992;5.924;2023-07-24T11:22:11;99743.78;;;22.02;59.43
69402;BME280;56589;51.992;5.924;2023-07-24T11:24:45;99734.53;;;22.11;58.92
69402;BME280;56589;51.992;5.924;2023-07-24T11:27:13;99732.13;;;22.23;59.30
69402;BME280;56589;51.992;5.924;2023-07-24T11:29:40;99733.00;;;22.37;58.52
69402;BME280;56589;51.992;5.924;2023-07-24T11:32:07;99737.75;;;22.41;57.89
69402;BME280;56589;51.992;5.924;2023-07-24T11:34:36;99731.34;;;22.36;58.29
69402;BME280;56589;51.992;5.924;2023-07-24T11:37:02;99736.94;;;22.41;57.74
69402;BME280;56589;51.992;5.924;2023-07-24T11:39:28;99731.59;;;22.47;57.60
69402;BME280;56589;51.992;5.924;2023-07-24T11:41:54;99725.63;;;22.45;57.58
69402;BME280;56589;51.992;5.924;2023-07-24T11:44:24;99722.06;;;22.31;58.13
69402;BME280;56589;51.992;5.924;2023-07-24T11:46:50;99711.53;;;22.17;58.21
69402;BME280;56589;51.992;5.924;2023-07-24T11:49:16;99716.44;;;22.13;58.24
69402;BME280;56589;51.992;5.924;2023-07-24T11:51:45;99716.44;;;22.13;58.38
69402;BME280;56589;51.992;5.924;2023-07-24T11:54:11;99714.41;;;22.15;58.58
69402;BME280;56589;51.992;5.924;2023-07-24T11:56:37;99710.31;;;22.26;58.86
69402;BME280;56589;51.992;5.924;2023-07-24T11:59:10;99721.09;;;22.39;58.48
69402;BME280;56589;51.992;5.924;2023-07-24T12:01:36;99719.88;;;22.48;58.15
69402;BME280;56589;51.992;5.924;2023-07-24T12:04:02;99723.00;;;22.58;58.27
69402;BME280;56589;51.992;5.924;2023-07-24T12:06:30;99715.41;;;22.62;57.50
69402;BME280;56589;51.992;5.924;2023-07-24T12:09:04;99719.13;;;22.68;58.03
69402;BME280;56589;51.992;5.924;2023-07-24T12:11:30;99719.56;;;22.84;57.80
69402;BME280;56589;51.992;5.924;2023-07-24T12:13:56;99716.06;;;23.04;58.22
69402;BME280;56589;51.992;5.924;2023-07-24T12:16:22;99723.91;;;23.19;57.19
69402;BME280;56589;51.992;5.924;2023-07-24T12:18:48;99721.00;;;23.33;56.75
69402;BME280;56589;51.992;5.924;2023-07-24T12:21:14;99724.13;;;23.50;56.00
69402;BME280;56589;51.992;5.924;2023-07-24T12:23:39;99721.22;;;23.58;55.40
69402;BME280;56589;51.992;5.924;2023-07-24T12:26:08;99715.63;;;23.66;55.56
69402;BME280;56589;51.992;5.924;2023-07-24T12:28:34;99720.78;;;23.75;54.92
69402;BME280;56589;51.992;5.924;2023-07-24T12:31:00;99710.47;;;23.72;54.82
69402;BME280;56589;51.992;5.924;2023-07-24T12:33:25;99711.09;;;23.60;54.35
69402;BME280;56589;51.992;5.924;2023-07-24T12:35:51;99703.91;;;23.48;54.63
69402;BME280;56589;51.992;5.924;2023-07-24T12:38:17;99715.88;;;23.45;54.20
69402;BME280;56589;51.992;5.924;2023-07-24T12:40:43;99696.31;;;23.38;54.31
69402;BME280;56589;51.992;5.924;2023-07-24T12:43:12;99689.91;;;23.26;54.33
69402;BME280;56589;51.992;5.924;2023-07-24T12:45:37;99677.53;;;23.11;55.00
69402;BME280;56589;51.992;5.924;2023-07-24T12:48:04;99684.75;;;23.04;56.68
69402;BME280;56589;51.992;5.924;2023-07-24T12:50:30;99683.09;;;23.17;57.00
69402;BME280;56589;51.992;5.924;2023-07-24T12:52:56;99690.72;;;23.33;56.92
69402;BME280;56589;51.992;5.924;2023-07-24T12:55:22;99680.44;;;23.43;55.61
69402;BME280;56589;51.992;5.924;2023-07-24T12:57:48;99694.88;;;23.35;55.08
69402;BME280;56589;51.992;5.924;2023-07-24T13:00:16;99687.03;;;23.27;55.15